Time;durP1;ratioP1;P1;durP2;ratioP2;P2;SDS_P1;SDS_P2;PMS_P1;PMS_P2;Temp;Humidity;BMP_temperature;BMP_pressure;BME280_temperature;BME280_humidity;BME280_pressure;Samples;Min_cycle;Max_cycle;Signal;HPM_P1;HPM_P2
2021/10/21 00:00:08;;;;;;;;;0.50;0.50;;;;;21.70;47.93;99160.59;5018341;28;45334;-52
2021/10/21 00:02:33;;;;;;;;;1.00;1.00;;;;;21.68;47.71;99157.25;5018597;28;45401;-54
2021/10/21 00:04:59;;;;;;;;;1.75;1.75;;;;;21.69;47.92;99172.94;5000498;28;45659;-49
2021/10/21 00:07:25;;;;;;;;;3.50;2.50;;;;;21.69;47.55;99165.03;5018092;28;47502;-50
2021/10/21 00:09:50;;;;;;;;;4.50;1.75;;;;;21.69;47.41;99185.28;5018187;28;45320;-49
2021/10/21 00:12:16;;;;;;;;;2.00;0.75;;;;;21.66;47.83;99165.28;5018294;28;45450;-51
2021/10/21 00:14:41;;;;;;;;;4.25;1.00;;;;;21.68;47.47;99139.63;5018574;28;45265;-51
2021/10/21 00:17:07;;;;;;;;;1.75;1.00;;;;;21.68;47.51;99157.25;5017856;28;47406;-50
2021/10/21 00:19:33;;;;;;;;;1.75;1.75;;;;;21.67;47.44;99145.88;5017862;28;45963;-49
2021/10/21 00:21:58;;;;;;;;;0.50;0.50;;;;;21.68;47.54;99144.06;5017984;28;45246;-53
2021/10/21 00:24:23;;;;;;;;;2.75;2.75;;;;;21.67;47.52;99171.38;5018117;28;45382;-49
2021/10/21 00:26:49;;;;;;;;;3.50;1.50;;;;;21.67;47.34;99166.13;5017697;28;46438;-52
2021/10/21 00:29:14;;;;;;;;;1.50;1.50;;;;;21.67;47.32;99171.38;5018024;28;45428;-52
2021/10/21 00:31:40;;;;;;;;;1.75;1.75;;;;;21.66;47.23;99175.84;5018001;28;45605;-48
2021/10/21 00:34:05;;;;;;;;;0.50;0.50;;;;;21.66;47.08;99186.38;5018019;28;45570;-50
2021/10/21 00:36:31;;;;;;;;;2.00;2.00;;;;;21.67;47.21;99192.47;5017485;28;45780;-50
2021/10/21 00:38:56;;;;;;;;;2.00;2.00;;;;;21.65;47.27;99162.81;4999780;28;45770;-49
2021/10/21 00:41:22;;;;;;;;;1.00;1.00;;;;;21.66;47.17;99190.84;4999871;28;45322;-52
2021/10/21 00:43:48;;;;;;;;;2.00;1.00;;;;;21.65;46.99;99197.91;5017848;28;45538;-48
2021/10/21 00:46:15;;;;;;;;;0.75;0.75;;;;;21.64;47.02;99190.13;5017687;28;46358;-52
2021/10/21 00:48:41;;;;;;;;;1.75;1.00;;;;;21.65;46.62;99203.16;5017332;28;45411;-49
2021/10/21 00:51:11;;;;;;;;;1.00;1.00;;;;;21.65;46.44;99165.44;5017648;28;45407;-50
2021/10/21 00:53:38;;;;;;;;;4.00;0.75;;;;;21.65;46.90;99212.91;5000267;28;45563;-50
2021/10/21 00:56:06;;;;;;;;;1.25;1.25;;;;;21.65;46.75;99202.34;5017307;28;45333;-49
2021/10/21 00:58:33;;;;;;;;;2.25;1.00;;;;;21.64;46.77;99198.03;5017119;28;45715;-50
2021/10/21 01:00:59;;;;;;;;;0.25;0.00;;;;;21.64;46.47;99200.69;5017161;28;45448;-51
2021/10/21 01:03:25;;;;;;;;;3.25;1.50;;;;;21.64;46.70;99208.59;5017226;28;45390;-50
2021/10/21 01:05:50;;;;;;;;;1.50;0.00;;;;;21.63;46.52;99220.91;5017133;28;46155;-55
2021/10/21 01:08:16;;;;;;;;;2.75;1.00;;;;;21.61;46.33;99221.06;5017550;28;45319;-50
2021/10/21 01:10:43;;;;;;;;;1.00;1.00;;;;;21.62;46.32;99220.09;5017345;28;45366;-50
2021/10/21 01:13:08;;;;;;;;;1.00;1.00;;;;;21.64;46.46;99240.22;5017465;28;45659;-53
2021/10/21 01:15:34;;;;;;;;;1.75;1.00;;;;;21.61;46.62;99239.50;5032220;28;45371;-54
2021/10/21 01:17:59;;;;;;;;;0.75;0.75;;;;;21.62;46.02;99248.25;5016399;28;45373;-53
2021/10/21 01:20:27;;;;;;;;;1.75;0.75;;;;;21.62;46.01;99243.81;5016922;28;45260;-54
2021/10/21 01:22:53;;;;;;;;;3.00;0.00;;;;;21.62;46.29;99266.69;5017146;28;45425;-52
2021/10/21 01:25:19;;;;;;;;;0.00;0.00;;;;;21.60;46.32;99222.03;5016951;28;45436;-52
2021/10/21 01:27:46;;;;;;;;;0.00;0.00;;;;;21.62;46.12;99280.72;5017130;28;45337;-52
2021/10/21 01:30:22;;;;;;;;;1.00;0.00;;;;;21.61;46.08;99294.03;5017036;28;45362;-51
2021/10/21 01:32:48;;;;;;;;;0.00;0.00;;;;;21.60;45.92;99290.56;5017322;28;45644;-49
2021/10/21 01:35:14;;;;;;;;;1.50;0.25;;;;;21.60;45.62;99303.75;5017034;28;46315;-52
2021/10/21 01:37:41;;;;;;;;;2.00;0.50;;;;;21.60;45.86;99308.19;5016124;28;45417;-53
2021/10/21 01:40:10;;;;;;;;;0.50;0.00;;;;;21.60;46.02;99314.28;5016698;28;45396;-56
2021/10/21 01:42:37;;;;;;;;;4.75;0.00;;;;;21.59;45.52;99312.63;5016904;28;45620;-54
2021/10/21 01:45:03;;;;;;;;;1.75;0.00;;;;;21.59;45.67;99317.88;5016437;28;46710;-53
2021/10/21 01:47:28;;;;;;;;;0.00;0.00;;;;;21.59;46.06;99320.53;5016644;28;45231;-52
2021/10/21 01:49:53;;;;;;;;;1.00;0.00;;;;;21.59;45.58;99357.44;5016777;28;45378;-50
2021/10/21 01:52:18;;;;;;;;;0.00;0.00;;;;;21.57;45.67;99364.59;5017076;28;45265;-54
2021/10/21 01:54:44;;;;;;;;;1.00;0.00;;;;;21.59;45.24;99364.53;5016443;28;45366;-54
2021/10/21 01:57:09;;;;;;;;;0.00;0.00;;;;;21.59;45.56;99359.25;5016530;28;45487;-52
2021/10/21 01:59:34;;;;;;;;;0.00;0.00;;;;;21.59;45.62;99394.34;5016622;28;45305;-54
2021/10/21 02:02:00;;;;;;;;;0.00;0.00;;;;;21.59;45.65;99394.34;5016714;28;45655;-51
2021/10/21 02:04:25;;;;;;;;;0.00;0.00;;;;;21.55;45.39;99411.34;5015932;28;46107;-51
2021/10/21 02:06:50;;;;;;;;;0.00;0.00;;;;;21.58;45.17;99390.00;4998557;28;45431;-51
2021/10/21 02:09:16;;;;;;;;;2.00;0.00;;;;;21.57;45.25;99422.59;5016537;28;45419;-51
2021/10/21 02:11:41;;;;;;;;;2.00;0.25;;;;;21.55;45.53;99410.50;5016677;28;45553;-51
2021/10/21 02:14:06;;;;;;;;;0.50;0.00;;;;;21.56;45.12;99428.84;5016061;28;46672;-50
2021/10/21 02:16:32;;;;;;;;;0.00;0.00;;;;;21.57;44.98;99429.69;5016240;28;45496;-51
2021/10/21 02:18:57;;;;;;;;;0.00;0.00;;;;;21.55;45.01;99485.16;5016231;28;45290;-51
2021/10/21 02:21:22;;;;;;;;;1.00;0.00;;;;;21.57;44.99;99451.59;5016255;28;45399;-50
2021/10/21 02:23:48;;;;;;;;;0.00;0.00;;;;;21.56;45.07;99481.56;5016291;28;45356;-51
2021/10/21 02:26:13;;;;;;;;;0.00;0.00;;;;;21.57;45.20;99471.88;5016219;28;45420;-52
2021/10/21 02:28:39;;;;;;;;;0.00;0.00;;;;;21.55;44.82;99487.78;5016154;28;45261;-53
2021/10/21 02:31:04;;;;;;;;;0.00;0.00;;;;;21.54;44.75;99472.09;5016277;28;45278;-52
2021/10/21 02:33:30;;;;;;;;;0.00;0.00;;;;;21.54;44.80;99524.84;4998197;28;46295;-53
2021/10/21 02:35:55;;;;;;;;;0.00;0.00;;;;;21.54;44.56;99494.06;5015799;28;45347;-51
2021/10/21 02:38:21;;;;;;;;;1.00;0.75;;;;;21.55;44.57;99532.59;5016422;28;45500;-51
2021/10/21 02:40:46;;;;;;;;;1.50;0.00;;;;;21.53;44.60;99558.28;5016464;28;45317;-53
2021/10/21 02:43:13;;;;;;;;;1.00;0.00;;;;;21.53;44.56;99524.00;5015756;28;46410;-52
2021/10/21 02:45:39;;;;;;;;;0.00;0.00;;;;;21.54;44.64;99577.56;5015869;28;45246;-51
2021/10/21 02:48:05;;;;;;;;;0.00;0.00;;;;;21.51;44.64;99561.97;5016008;28;45306;-52
2021/10/21 02:50:30;;;;;;;;;0.00;0.00;;;;;21.53;44.75;99582.00;5019121;28;45322;-49
2021/10/21 02:52:55;;;;;;;;;0.75;0.00;;;;;21.54;44.33;99609.19;5019242;28;45452;-51
2021/10/21 02:55:22;;;;;;;;;0.00;0.00;;;;;21.54;44.57;99620.59;5019464;28;45505;-50
2021/10/21 02:57:47;;;;;;;;;2.00;0.25;;;;;21.54;44.30;99632.94;5019638;28;45720;-51
2021/10/21 03:00:13;;;;;;;;;0.00;0.00;;;;;21.53;44.38;99662.88;5019328;28;45476;-50
2021/10/21 03:02:39;;;;;;;;;0.00;0.00;;;;;21.52;43.90;99659.41;5034252;28;47316;-51
2021/10/21 03:05:05;;;;;;;;;0.00;0.00;;;;;21.53;44.40;99661.09;5018992;28;45405;-50
2021/10/21 03:07:30;;;;;;;;;0.25;0.00;;;;;21.50;44.15;99700.88;5034642;28;45368;-50
2021/10/21 03:09:56;;;;;;;;;0.00;0.00;;;;;21.53;43.90;99687.47;5019451;28;45329;-49
2021/10/21 03:12:21;;;;;;;;;0.00;0.00;;;;;21.52;43.89;99743.78;5034803;28;46954;-48
2021/10/21 03:14:47;;;;;;;;;0.00;0.00;;;;;21.52;44.04;99738.50;5019096;28;45306;-52
2021/10/21 03:17:13;;;;;;;;;0.00;0.00;;;;;21.53;44.07;99765.69;5019243;28;45258;-50
2021/10/21 03:19:38;;;;;;;;;0.00;0.00;;;;;21.52;43.90;99822.88;5019352;28;45262;-51
2021/10/21 03:22:04;;;;;;;;;1.50;0.00;;;;;21.53;43.65;99797.34;5018751;28;45987;-49
2021/10/21 03:24:29;;;;;;;;;0.00;0.00;;;;;21.52;43.68;99824.66;5018839;28;45223;-50
2021/10/21 03:26:54;;;;;;;;;0.00;0.00;;;;;21.49;43.82;99836.28;5018932;28;45243;-49
2021/10/21 03:29:19;;;;;;;;;0.00;0.00;;;;;21.52;43.52;99865.06;5019462;28;45201;-48
2021/10/21 03:31:45;;;;;;;;;0.00;0.00;;;;;21.52;43.56;99870.31;5018731;28;45495;-49
2021/10/21 03:34:10;;;;;;;;;0.00;0.00;;;;;21.53;43.38;99905.44;5018666;28;45405;-51
2021/10/21 03:36:36;;;;;;;;;0.00;0.00;;;;;21.51;43.45;99900.28;5018720;28;45321;-49
2021/10/21 03:39:01;;;;;;;;;0.00;0.00;;;;;21.51;43.42;99916.09;5018824;28;45347;-49
2021/10/21 03:41:27;;;;;;;;;0.25;0.25;;;;;21.52;43.29;99951.19;5018334;28;46273;-49
2021/10/21 03:43:53;;;;;;;;;0.00;0.00;;;;;21.52;43.57;99962.59;5018799;28;45362;-52
2021/10/21 03:46:18;;;;;;;;;0.00;0.00;;;;;21.51;43.50;99984.66;5018653;28;45431;-53
2021/10/21 03:48:43;;;;;;;;;1.00;0.00;;;;;21.51;43.37;100002.25;5018680;28;45309;-54
2021/10/21 03:51:11;;;;;;;;;0.25;0.00;;;;;21.51;43.38;100021.56;5018263;28;45523;-53
2021/10/21 03:53:36;;;;;;;;;0.00;0.00;;;;;21.52;43.22;100048.75;5018280;28;45226;-52
2021/10/21 03:56:01;;;;;;;;;0.00;0.00;;;;;21.51;43.12;100042.66;5018388;28;45389;-53
2021/10/21 03:58:27;;;;;;;;;0.00;0.00;;;;;21.51;43.44;100047.06;5018496;28;45489;-54
2021/10/21 04:00:52;;;;;;;;;0.00;0.00;;;;;21.50;42.69;100080.50;5017893;28;45322;-52
2021/10/21 04:03:18;;;;;;;;;1.00;0.00;;;;;21.50;42.72;100090.22;5018083;28;45274;-54
2021/10/21 04:05:43;;;;;;;;;0.00;0.00;;;;;21.50;42.65;100103.41;5018317;28;45677;-50
2021/10/21 04:08:08;;;;;;;;;0.00;0.00;;;;;21.50;42.19;100112.16;5018439;28;45226;-48
2021/10/21 04:10:34;;;;;;;;;0.00;0.00;;;;;21.49;43.21;100099.91;5017979;28;45436;-53
2021/10/21 04:12:59;;;;;;;;;1.00;1.00;;;;;21.49;43.03;100123.66;5017968;28;45397;-50
2021/10/21 04:15:25;;;;;;;;;0.00;0.00;;;;;21.49;43.19;100154.44;5033655;28;45384;-50
2021/10/21 04:17:52;;;;;;;;;0.00;0.00;;;;;21.48;43.03;100153.59;5018116;28;45573;-51
2021/10/21 04:20:18;;;;;;;;;0.00;0.00;;;;;21.50;43.05;100137.69;5017768;28;46318;-50
2021/10/21 04:22:43;;;;;;;;;1.00;1.00;;;;;21.48;43.15;100150.97;5017913;28;45334;-51
2021/10/21 04:25:09;;;;;;;;;0.00;0.00;;;;;21.46;43.13;100166.03;5017819;28;45428;-52
2021/10/21 04:27:35;;;;;;;;;0.00;0.00;;;;;21.45;43.27;100162.56;5018209;28;45547;-52
2021/10/21 04:30:00;;;;;;;;;0.00;0.00;;;;;21.47;42.88;100179.13;5017688;28;46376;-51
2021/10/21 04:32:26;;;;;;;;;0.00;0.00;;;;;21.48;43.38;100179.97;5000243;28;45374;-51
2021/10/21 04:34:51;;;;;;;;;0.25;0.00;;;;;21.46;43.07;100163.41;5000017;28;45298;-50
2021/10/21 04:37:16;;;;;;;;;0.00;0.00;;;;;21.45;43.07;100185.44;5017816;28;45492;-49
2021/10/21 04:39:42;;;;;;;;;0.75;0.75;;;;;21.48;43.51;100201.06;5017641;28;46210;-52
2021/10/21 04:42:07;;;;;;;;;0.00;0.00;;;;;21.48;43.37;100203.69;5017521;28;45263;-50
2021/10/21 04:44:32;;;;;;;;;0.25;0.25;;;;;21.48;43.25;100206.31;4999826;28;45707;-54
2021/10/21 04:46:58;;;;;;;;;0.00;0.00;;;;;21.45;43.39;100217.06;5016500;28;45554;-51
2021/10/21 04:49:24;;;;;;;;;0.00;0.00;;;;;21.47;43.28;100223.09;5017728;28;47200;-55
2021/10/21 04:51:49;;;;;;;;;0.00;0.00;;;;;21.46;43.11;100224.91;5017384;28;45355;-48
2021/10/21 04:54:15;;;;;;;;;0.00;0.00;;;;;21.48;43.19;100245.88;5017652;28;45416;-51
2021/10/21 04:56:40;;;;;;;;;0.00;0.00;;;;;21.46;43.61;100250.41;5017672;28;45309;-52
2021/10/21 04:59:06;;;;;;;;;0.00;0.00;;;;;21.47;43.44;100246.81;5017255;28;46833;-52
2021/10/21 05:01:31;;;;;;;;;0.00;0.00;;;;;21.45;43.46;100262.75;5017388;28;45437;-51
2021/10/21 05:03:56;;;;;;;;;0.00;0.00;;;;;21.47;43.55;100279.31;5017582;28;45535;-52
2021/10/21 05:06:22;;;;;;;;;0.00;0.00;;;;;21.47;43.24;100286.38;5017614;28;45410;-52
2021/10/21 05:08:47;;;;;;;;;0.00;0.00;;;;;21.46;43.27;100298.72;5017011;28;46334;-49
2021/10/21 05:11:12;;;;;;;;;0.50;0.50;;;;;21.46;43.46;100303.13;5016287;28;45335;-51
2021/10/21 05:13:38;;;;;;;;;0.00;0.00;;;;;21.46;43.33;100296.09;5016955;28;45461;-50
2021/10/21 05:16:03;;;;;;;;;0.00;0.00;;;;;21.45;43.15;100311.97;5017199;28;45639;-51
2021/10/21 05:18:29;;;;;;;;;0.00;0.00;;;;;21.45;43.06;100318.13;5017081;28;45645;-51
2021/10/21 05:20:54;;;;;;;;;2.00;1.00;;;;;21.45;43.01;100320.75;5017319;28;45385;-48
2021/10/21 05:23:19;;;;;;;;;0.00;0.00;;;;;21.45;43.07;100328.66;5017085;28;45414;-53
2021/10/21 05:25:46;;;;;;;;;0.00;0.00;;;;;21.45;43.02;100333.06;5017256;28;45646;-55
2021/10/21 05:28:12;;;;;;;;;0.00;0.00;;;;;21.45;43.27;100339.22;5016784;28;45316;-53
2021/10/21 05:30:37;;;;;;;;;0.00;0.00;;;;;21.46;43.34;100340.03;4998902;28;45388;-51
2021/10/21 05:33:03;;;;;;;;;2.00;1.00;;;;;21.46;43.21;100354.09;5016988;28;45306;-55
2021/10/21 05:35:29;;;;;;;;;0.00;0.00;;;;;21.45;43.20;100360.31;5017236;28;45239;-49
2021/10/21 05:37:54;;;;;;;;;0.00;0.00;;;;;21.45;43.17;100357.66;5016635;28;46204;-51
2021/10/21 05:40:20;;;;;;;;;0.00;0.00;;;;;21.45;43.08;100362.06;5016575;28;45373;-53
2021/10/21 05:42:47;;;;;;;;;0.25;0.25;;;;;21.44;43.28;100363.88;5016828;28;45361;-54
2021/10/21 05:45:12;;;;;;;;;0.50;0.00;;;;;21.44;43.32;100368.31;5017037;28;45567;-50
2021/10/21 05:47:37;;;;;;;;;1.75;0.00;;;;;21.45;43.24;100376.13;5016410;28;45467;-51
2021/10/21 05:50:04;;;;;;;;;1.00;0.00;;;;;21.43;42.67;100369.28;5016121;28;45420;-55
2021/10/21 05:52:29;;;;;;;;;1.25;0.00;;;;;21.43;43.15;100378.00;4999265;28;45419;-52
2021/10/21 05:54:55;;;;;;;;;0.00;0.00;;;;;21.44;43.27;100376.22;5016647;28;45397;-53
2021/10/21 05:57:20;;;;;;;;;0.75;0.75;;;;;21.44;43.16;100376.22;5016289;28;46531;-54
2021/10/21 05:59:46;;;;;;;;;0.00;0.00;;;;;21.44;43.27;100374.44;5016526;28;45433;-55
2021/10/21 06:02:11;;;;;;;;;0.00;0.00;;;;;21.44;43.04;100373.59;5016515;28;45238;-53
2021/10/21 06:04:37;;;;;;;;;0.75;0.75;;;;;21.44;43.20;100389.41;5016323;28;45520;-54
2021/10/21 06:07:02;;;;;;;;;0.00;0.00;;;;;21.44;43.29;100384.13;5016595;28;45590;-52
2021/10/21 06:09:28;;;;;;;;;0.00;0.00;;;;;21.44;43.07;100387.59;5016418;28;45443;-57
2021/10/21 06:11:53;;;;;;;;;0.00;0.00;;;;;21.43;43.33;100387.72;5016518;28;45419;-54
2021/10/21 06:14:18;;;;;;;;;1.75;0.00;;;;;21.43;43.08;100398.28;5016681;28;45507;-55
2021/10/21 06:16:47;;;;;;;;;0.00;0.00;;;;;21.42;42.98;100401.84;5016395;28;45465;-54
2021/10/21 06:19:13;;;;;;;;;0.00;0.00;;;;;21.42;43.30;100405.31;5016346;28;45942;-54
2021/10/21 06:21:38;;;;;;;;;1.00;0.00;;;;;21.42;43.36;100420.31;5016233;28;45369;-51
2021/10/21 06:24:04;;;;;;;;;0.00;0.00;;;;;21.43;43.08;100427.28;5019002;28;45384;-49
2021/10/21 06:26:31;;;;;;;;;0.50;0.00;;;;;21.42;43.21;100429.03;5035568;28;46982;-52
2021/10/21 06:28:56;;;;;;;;;0.75;0.75;;;;;21.42;43.08;100428.22;5001813;28;45672;-52
2021/10/21 06:31:22;;;;;;;;;0.00;0.00;;;;;21.43;43.71;100427.28;5019836;28;45250;-50
2021/10/21 06:33:48;;;;;;;;;0.00;0.00;;;;;21.41;43.40;100427.34;5002096;28;45416;-51
2021/10/21 06:36:14;;;;;;;;;0.00;0.00;;;;;21.42;43.23;100431.69;5019552;28;46212;-52
2021/10/21 06:38:40;;;;;;;;;0.00;0.00;;;;;21.43;43.23;100441.28;5019706;28;45235;-53
2021/10/21 06:41:06;;;;;;;;;0.50;0.00;;;;;21.43;43.49;100441.28;5019672;28;45433;-52
2021/10/21 06:43:32;;;;;;;;;0.25;0.25;;;;;21.42;43.61;100434.31;5020163;28;45427;-51
2021/10/21 06:46:00;;;;;;;;;0.25;0.25;;;;;21.43;43.50;100443.91;5019390;28;46663;-53
2021/10/21 06:48:26;;;;;;;;;0.50;0.50;;;;;21.43;43.71;100448.34;5019429;28;45604;-52
2021/10/21 06:50:52;;;;;;;;;0.25;0.25;;;;;21.43;43.44;100451.00;5019442;28;45480;-53
2021/10/21 06:53:18;;;;;;;;;0.75;0.00;;;;;21.44;43.72;100463.22;5019632;28;45358;-53
2021/10/21 06:55:43;;;;;;;;;0.75;0.25;;;;;21.43;43.47;100464.19;5019233;28;46556;-53
2021/10/21 06:58:09;;;;;;;;;1.00;0.00;;;;;21.42;43.21;100468.59;4985102;28;45353;-49
2021/10/21 07:00:39;;;;;;;;;1.00;1.00;;;;;21.44;43.66;100476.41;5019751;28;45272;-52
2021/10/21 07:03:05;;;;;;;;;1.00;1.00;;;;;21.42;43.64;100481.78;5019344;28;45527;-55
2021/10/21 07:05:36;;;;;;;;;0.75;0.00;;;;;21.42;43.74;100473.03;5019428;28;46388;-54
2021/10/21 07:08:01;;;;;;;;;1.75;1.00;;;;;21.43;43.60;100486.09;5019409;28;45376;-53
2021/10/21 07:10:27;;;;;;;;;1.75;0.75;;;;;21.42;43.81;100489.69;5019250;28;45333;-52
2021/10/21 07:12:52;;;;;;;;;0.50;0.00;;;;;21.44;43.72;100493.06;5034717;28;45556;-53
2021/10/21 07:15:18;;;;;;;;;0.00;0.00;;;;;21.43;43.75;100496.66;5018848;28;45652;-55
2021/10/21 07:17:43;;;;;;;;;1.00;0.00;;;;;21.43;43.79;100495.81;5019028;28;45505;-54
2021/10/21 07:20:13;;;;;;;;;1.00;1.00;;;;;21.43;43.68;100507.19;5018952;28;45415;-53
2021/10/21 07:22:38;;;;;;;;;0.25;0.25;;;;;21.43;43.94;100504.56;5019170;28;45437;-51
2021/10/21 07:25:04;;;;;;;;;1.50;0.00;;;;;21.44;43.52;100505.41;5019233;28;46012;-53
2021/10/21 07:27:30;;;;;;;;;0.00;0.00;;;;;21.43;43.54;100515.09;5019034;28;45275;-54
2021/10/21 07:29:55;;;;;;;;;0.00;0.00;;;;;21.42;43.90;100507.31;5019123;28;45341;-49
2021/10/21 07:32:20;;;;;;;;;2.50;0.50;;;;;21.45;43.73;100512.34;5019224;28;45222;-53
2021/10/21 07:34:46;;;;;;;;;1.25;0.75;;;;;21.45;43.96;100525.53;5017853;28;46385;-53
2021/10/21 07:37:12;;;;;;;;;1.00;1.00;;;;;21.41;43.95;100518.78;5018605;28;45304;-52
2021/10/21 07:39:39;;;;;;;;;1.00;0.00;;;;;21.44;44.18;100537.88;5000985;28;45411;-54
2021/10/21 07:42:05;;;;;;;;;0.00;0.00;;;;;21.44;44.08;100532.63;5019056;28;45498;-55
2021/10/21 07:44:34;;;;;;;;;0.75;0.25;;;;;21.45;43.98;100544.00;5018678;28;45343;-55
2021/10/21 07:47:00;;;;;;;;;1.00;0.00;;;;;21.44;43.89;100544.97;5018694;28;45657;-53
2021/10/21 07:49:26;;;;;;;;;2.00;1.00;;;;;21.41;44.04;100548.63;5001132;28;45535;-53
2021/10/21 07:51:52;;;;;;;;;0.00;0.00;;;;;21.46;44.19;100562.38;5018983;28;45316;-53
2021/10/21 07:54:18;;;;;;;;;1.00;0.00;;;;;21.46;44.33;100565.00;5018309;28;46728;-52
2021/10/21 07:56:43;;;;;;;;;0.00;0.00;;;;;21.48;44.21;100570.19;5033731;28;45258;-53
2021/10/21 07:59:08;;;;;;;;;1.00;0.00;;;;;21.44;44.26;100579.25;5018400;28;45294;-53
2021/10/21 08:01:34;;;;;;;;;2.50;0.50;;;;;21.49;43.96;100581.59;5017590;28;45540;-53
2021/10/21 08:03:59;;;;;;;;;0.00;0.00;;;;;21.47;43.84;100579.03;5018111;28;45461;-54
2021/10/21 08:06:26;;;;;;;;;4.00;2.00;;;;;21.47;43.83;100597.47;5018134;28;45309;-52
2021/10/21 08:08:53;;;;;;;;;1.00;1.00;;;;;21.48;43.75;100593.91;5018424;28;45289;-53
2021/10/21 08:11:18;;;;;;;;;0.75;0.50;;;;;21.47;43.98;100592.22;5018469;28;45369;-54
2021/10/21 08:13:44;;;;;;;;;2.75;1.00;;;;;21.44;43.93;100589.78;5018047;28;45530;-54
2021/10/21 08:16:09;;;;;;;;;2.50;0.25;;;;;21.46;44.11;100598.44;5018203;28;45302;-50
2021/10/21 08:18:34;;;;;;;;;0.75;0.75;;;;;21.45;44.09;100596.72;5018336;28;45539;-53
2021/10/21 08:21:00;;;;;;;;;2.00;2.00;;;;;21.49;43.90;100603.50;5018227;28;45364;-54
2021/10/21 08:23:26;;;;;;;;;1.25;1.25;;;;;21.46;44.05;100593.16;5017850;28;46608;-54
2021/10/21 08:25:51;;;;;;;;;4.50;0.00;;;;;21.50;44.53;100604.38;5017968;28;45427;-52
2021/10/21 08:28:17;;;;;;;;;1.00;1.00;;;;;21.50;43.98;100599.94;5018045;28;45336;-52
2021/10/21 08:30:43;;;;;;;;;1.00;1.00;;;;;21.52;44.09;100615.66;5018023;28;45471;-54
2021/10/21 08:33:11;;;;;;;;;1.00;1.00;;;;;21.53;44.29;100602.38;5017740;28;46102;-51
2021/10/21 08:35:36;;;;;;;;;2.25;1.00;;;;;21.54;44.03;100601.44;5018091;28;45448;-52
2021/10/21 08:38:03;;;;;;;;;1.00;0.00;;;;;21.54;44.08;100603.22;5017869;28;45398;-49
2021/10/21 08:40:29;;;;;;;;;3.25;2.00;;;;;21.54;44.28;100606.72;5017846;28;45505;-52
2021/10/21 08:42:55;;;;;;;;;3.75;2.00;;;;;21.55;44.29;100600.47;5017579;28;46120;-52
2021/10/21 08:45:22;;;;;;;;;1.75;1.75;;;;;21.57;44.04;100597.75;5017600;28;45958;-52
2021/10/21 08:47:50;;;;;;;;;1.50;1.50;;;;;21.58;43.81;100596.81;5016531;28;45436;-48
2021/10/21 08:50:18;;;;;;;;;3.75;2.75;;;;;21.58;43.85;100592.38;5017494;28;45371;-54
2021/10/21 08:52:44;;;;;;;;;3.00;1.75;;;;;21.58;43.92;100599.44;4999770;28;45779;-48
2021/10/21 08:55:11;;;;;;;;;4.75;0.75;;;;;21.61;43.99;100602.78;4999928;28;45859;-46
2021/10/21 08:57:38;;;;;;;;;2.50;1.00;;;;;21.63;43.89;100607.94;5017757;28;45540;-52
2021/10/21 09:00:04;;;;;;;;;1.00;1.00;;;;;21.62;43.99;100609.75;5017621;28;45435;-51
2021/10/21 09:02:51;;;;;;;;;2.25;1.00;;;;;21.64;44.01;100606.16;5017058;28;45494;-53
2021/10/21 09:05:28;;;;;;;;;1.00;1.00;;;;;21.62;44.25;100609.75;5017387;28;45674;-51
2021/10/21 09:08:14;;;;;;;;;2.50;0.75;;;;;21.64;44.28;100600.88;5001151;28;45302;-53
2021/10/21 09:10:58;;;;;;;;;1.25;1.25;;;;;21.64;43.95;100614.91;5017833;28;45366;-53
2021/10/21 09:13:29;;;;;;;;;1.25;1.25;;;;;21.65;44.43;100600.78;5017213;28;46669;-52
2021/10/21 09:15:59;;;;;;;;;3.00;2.00;;;;;21.65;43.96;100607.84;5017154;28;45411;-55
2021/10/21 09:18:42;;;;;;;;;2.00;0.25;;;;;21.65;43.72;100613.13;5017339;28;45303;-50
2021/10/21 09:21:07;;;;;;;;;2.50;1.00;;;;;21.66;43.64;100609.56;5017661;28;45462;-46
2021/10/21 09:23:32;;;;;;;;;2.00;1.00;;;;;21.67;43.68;100616.50;5016931;28;45397;-50
2021/10/21 09:26:09;;;;;;;;;3.00;2.00;;;;;21.68;43.96;100615.56;5017250;28;45373;-53
2021/10/21 09:28:35;;;;;;;;;4.25;1.75;;;;;21.65;43.64;100592.88;5017291;28;45266;-53
2021/10/21 09:31:05;;;;;;;;;2.00;1.00;;;;;21.69;43.83;100609.34;5017275;28;45562;-48
2021/10/21 09:33:46;;;;;;;;;2.50;2.50;;;;;21.69;43.72;100615.47;5017019;28;46087;-49
2021/10/21 09:36:12;;;;;;;;;3.00;1.25;;;;;21.70;43.51;100616.31;5017061;28;45451;-50
2021/10/21 09:38:50;;;;;;;;;2.00;1.25;;;;;21.69;43.42;100622.53;5017526;28;45400;-51
2021/10/21 09:41:21;;;;;;;;;0.50;0.50;;;;;21.70;43.96;100608.41;4999956;28;45447;-52
2021/10/21 09:43:48;;;;;;;;;1.00;1.00;;;;;21.67;42.28;100627.03;5016665;28;46336;-52
2021/10/21 09:46:31;;;;;;;;;2.00;1.00;;;;;21.60;42.19;100616.91;5016531;28;45439;-54
2021/10/21 09:49:19;;;;;;;;;2.00;0.75;;;;;21.53;41.29;100612.06;5016938;28;45839;-54
2021/10/21 09:51:46;;;;;;;;;1.50;1.25;;;;;21.47;41.66;100621.22;5016876;28;45491;-53
2021/10/21 09:54:11;;;;;;;;;3.00;0.75;;;;;21.42;41.13;100623.31;5016827;28;47256;-53
2021/10/21 09:56:57;;;;;;;;;2.25;2.25;;;;;21.37;41.68;100618.31;5016625;28;45423;-52
2021/10/21 09:59:38;;;;;;;;;1.00;1.00;;;;;21.33;41.01;100618.63;5016266;28;45650;-53
2021/10/21 10:02:15;;;;;;;;;2.50;1.00;;;;;21.26;40.94;100618.97;5016693;28;45447;-52
2021/10/21 10:04:46;;;;;;;;;4.50;1.25;;;;;21.20;40.88;100627.28;5016639;28;46429;-53
2021/10/21 10:07:12;;;;;;;;;2.00;1.00;;;;;21.17;41.08;100630.09;5016789;28;45827;-53
2021/10/21 10:09:37;;;;;;;;;1.00;0.00;;;;;21.15;41.46;100626.69;5016641;28;45285;-53
2021/10/21 10:12:05;;;;;;;;;4.50;1.00;;;;;21.14;41.32;100627.63;5016918;28;45887;-52
2021/10/21 10:14:38;;;;;;;;;0.75;0.00;;;;;21.14;41.64;100619.72;5016395;28;46374;-53
2021/10/21 10:17:03;;;;;;;;;2.00;1.00;;;;;21.13;41.84;100628.56;5016424;28;45501;-53
2021/10/21 10:19:30;;;;;;;;;1.25;1.25;;;;;21.16;41.83;100620.50;5016384;28;45531;-52
2021/10/21 10:21:59;;;;;;;;;1.50;1.50;;;;;21.19;41.66;100628.22;5016616;28;45564;-49
2021/10/21 10:24:33;;;;;;;;;3.00;1.50;;;;;21.22;41.78;100627.16;5015942;28;45792;-52
2021/10/21 10:27:17;;;;;;;;;2.75;1.00;;;;;21.21;41.55;100625.47;5016216;28;45762;-53
2021/10/21 10:29:45;;;;;;;;;3.25;1.50;;;;;21.23;42.02;100619.16;5016632;28;45244;-53
2021/10/21 10:32:31;;;;;;;;;2.75;1.75;;;;;21.25;41.98;100616.44;4998838;28;45685;-53
2021/10/21 10:34:58;;;;;;;;;2.50;1.00;;;;;21.29;42.22;100612.66;5015419;28;46373;-53
2021/10/21 10:37:23;;;;;;;;;1.00;1.00;;;;;21.31;42.23;100608.16;5016066;28;45648;-54
2021/10/21 10:39:50;;;;;;;;;2.00;1.00;;;;;21.33;42.03;100613.34;5016132;28;45366;-55
2021/10/21 10:42:17;;;;;;;;;2.25;1.00;;;;;21.34;42.49;100615.00;5016131;28;45576;-55
2021/10/21 10:44:48;;;;;;;;;2.25;0.50;;;;;21.35;42.38;100630.75;4998408;28;47074;-55
2021/10/21 10:47:15;;;;;;;;;3.50;0.75;;;;;21.36;42.48;100619.25;5016228;28;45412;-54
2021/10/21 10:49:42;;;;;;;;;2.00;2.00;;;;;21.37;42.27;100628.88;5016450;28;45397;-53
2021/10/21 10:52:10;;;;;;;;;2.75;1.50;;;;;21.38;42.25;100627.06;5016202;28;45600;-53
2021/10/21 10:54:56;;;;;;;;;1.00;1.00;;;;;21.38;42.16;100622.66;5015774;28;46514;-54
2021/10/21 10:57:24;;;;;;;;;2.75;1.75;;;;;21.39;42.56;100639.31;5015732;28;45748;-54
2021/10/21 10:59:50;;;;;;;;;0.00;0.00;;;;;21.39;42.85;100631.41;5015990;28;45489;-54
2021/10/21 11:02:25;;;;;;;;;1.00;1.00;;;;;21.40;42.33;100627.81;5016068;28;45453;-54
2021/10/21 11:04:53;;;;;;;;;1.50;1.50;;;;;21.40;42.63;100625.19;5015575;28;45697;-53
2021/10/21 11:07:41;;;;;;;;;2.25;2.00;;;;;21.39;42.84;100612.94;5015820;28;45626;-54
2021/10/21 11:10:19;;;;;;;;;2.00;1.00;;;;;21.40;42.73;100622.56;5016638;28;45449;-55
2021/10/21 11:12:45;;;;;;;;;4.75;1.00;;;;;21.38;42.83;100616.53;5019683;28;45495;-53
2021/10/21 11:15:29;;;;;;;;;2.00;1.00;;;;;21.41;42.72;100618.97;5019122;28;46132;-54
2021/10/21 11:17:59;;;;;;;;;3.75;1.00;;;;;21.41;42.90;100611.06;5018997;28;45940;-55
2021/10/21 11:20:27;;;;;;;;;0.00;0.00;;;;;21.44;42.96;100616.16;5018903;28;45353;-54
2021/10/21 11:22:55;;;;;;;;;4.25;2.00;;;;;21.46;43.18;100611.59;5019288;28;45444;-48
2021/10/21 11:25:25;;;;;;;;;4.00;1.00;;;;;21.46;43.12;100601.06;5018814;28;45469;-54